sensor_id;sensor_type;location;lat;lon;timestamp;P1;durP1;ratioP1;P2;durP2;ratioP2
313;SDS011;143;51.634;7.112;2024-01-30T00:01:34;16.70;;;8.90;;
313;SDS011;143;51.634;7.112;2024-01-30T00:04:00;19.37;;;8.83;;
313;SDS011;143;51.634;7.112;2024-01-30T00:06:25;16.60;;;8.77;;
313;SDS011;143;51.634;7.112;2024-01-30T00:08:50;12.03;;;8.10;;
313;SDS011;143;51.634;7.112;2024-01-30T00:11:16;15.40;;;8.90;;
313;SDS011;143;51.634;7.112;2024-01-30T00:13:42;13.80;;;9.60;;
313;SDS011;143;51.634;7.112;2024-01-30T00:16:07;17.80;;;8.67;;
313;SDS011;143;51.634;7.112;2024-01-30T00:18:34;18.83;;;8.80;;
313;SDS011;143;51.634;7.112;2024-01-30T00:20:59;16.93;;;7.63;;
313;SDS011;143;51.634;7.112;2024-01-30T00:23:25;13.80;;;8.50;;
313;SDS011;143;51.634;7.112;2024-01-30T00:25:50;14.07;;;8.57;;
313;SDS011;143;51.634;7.112;2024-01-30T00:28:16;12.40;;;7.50;;
313;SDS011;143;51.634;7.112;2024-01-30T00:30:41;21.67;;;8.90;;
313;SDS011;143;51.634;7.112;2024-01-30T00:33:07;13.17;;;7.83;;
313;SDS011;143;51.634;7.112;2024-01-30T00:35:34;17.13;;;8.63;;
313;SDS011;143;51.634;7.112;2024-01-30T00:37:59;13.73;;;8.33;;
313;SDS011;143;51.634;7.112;2024-01-30T00:40:25;19.93;;;8.70;;
313;SDS011;143;51.634;7.112;2024-01-30T00:42:51;13.43;;;7.90;;
313;SDS011;143;51.634;7.112;2024-01-30T00:45:16;12.87;;;8.30;;
313;SDS011;143;51.634;7.112;2024-01-30T00:47:42;15.53;;;8.80;;
313;SDS011;143;51.634;7.112;2024-01-30T00:50:08;15.53;;;7.67;;
313;SDS011;143;51.634;7.112;2024-01-30T00:52:34;14.40;;;9.03;;
313;SDS011;143;51.634;7.112;2024-01-30T00:55:00;13.50;;;8.37;;
313;SDS011;143;51.634;7.112;2024-01-30T00:57:26;13.93;;;8.23;;
313;SDS011;143;51.634;7.112;2024-01-30T00:59:52;13.10;;;7.83;;
313;SDS011;143;51.634;7.112;2024-01-30T01:02:17;12.93;;;8.43;;
313;SDS011;143;51.634;7.112;2024-01-30T01:04:43;12.03;;;6.90;;
313;SDS011;143;51.634;7.112;2024-01-30T01:07:10;12.40;;;7.53;;
313;SDS011;143;51.634;7.112;2024-01-30T01:09:36;18.43;;;8.30;;
313;SDS011;143;51.634;7.112;2024-01-30T01:12:03;15.30;;;8.83;;
313;SDS011;143;51.634;7.112;2024-01-30T01:14:29;17.67;;;8.60;;
313;SDS011;143;51.634;7.112;2024-01-30T01:16:54;16.23;;;8.50;;
313;SDS011;143;51.634;7.112;2024-01-30T01:19:20;14.63;;;9.10;;
313;SDS011;143;51.634;7.112;2024-01-30T01:21:46;12.13;;;7.67;;
313;SDS011;143;51.634;7.112;2024-01-30T01:24:11;14.07;;;8.43;;
313;SDS011;143;51.634;7.112;2024-01-30T01:26:37;15.37;;;9.33;;
313;SDS011;143;51.634;7.112;2024-01-30T01:29:02;21.43;;;10.73;;
313;SDS011;143;51.634;7.112;2024-01-30T01:31:34;13.47;;;7.73;;
313;SDS011;143;51.634;7.112;2024-01-30T01:34:12;13.50;;;8.53;;
313;SDS011;143;51.634;7.112;2024-01-30T01:36:38;18.53;;;9.80;;
313;SDS011;143;51.634;7.112;2024-01-30T01:39:04;15.97;;;8.47;;
313;SDS011;143;51.634;7.112;2024-01-30T01:41:30;14.33;;;9.10;;
313;SDS011;143;51.634;7.112;2024-01-30T01:43:57;15.67;;;8.83;;
313;SDS011;143;51.634;7.112;2024-01-30T01:46:23;18.50;;;9.40;;
313;SDS011;143;51.634;7.112;2024-01-30T01:48:48;17.37;;;9.60;;
313;SDS011;143;51.634;7.112;2024-01-30T01:51:14;19.57;;;9.70;;
313;SDS011;143;51.634;7.112;2024-01-30T01:53:40;19.87;;;10.17;;
313;SDS011;143;51.634;7.112;2024-01-30T01:56:06;14.13;;;8.23;;
313;SDS011;143;51.634;7.112;2024-01-30T01:58:32;18.43;;;10.20;;
313;SDS011;143;51.634;7.112;2024-01-30T02:00:58;17.33;;;9.77;;
313;SDS011;143;51.634;7.112;2024-01-30T02:03:24;18.63;;;9.33;;
313;SDS011;143;51.634;7.112;2024-01-30T02:05:53;20.50;;;10.33;;
313;SDS011;143;51.634;7.112;2024-01-30T02:08:20;15.93;;;9.40;;
313;SDS011;143;51.634;7.112;2024-01-30T02:10:45;19.80;;;10.43;;
313;SDS011;143;51.634;7.112;2024-01-30T02:13:11;16.77;;;9.73;;
313;SDS011;143;51.634;7.112;2024-01-30T02:15:36;14.67;;;8.80;;
313;SDS011;143;51.634;7.112;2024-01-30T02:18:02;16.60;;;9.33;;
313;SDS011;143;51.634;7.112;2024-01-30T02:20:28;21.77;;;9.40;;
313;SDS011;143;51.634;7.112;2024-01-30T02:22:55;14.57;;;10.80;;
313;SDS011;143;51.634;7.112;2024-01-30T02:25:38;18.33;;;8.83;;
313;SDS011;143;51.634;7.112;2024-01-30T02:28:09;21.40;;;9.40;;
313;SDS011;143;51.634;7.112;2024-01-30T02:30:44;11.80;;;7.83;;
313;SDS011;143;51.634;7.112;2024-01-30T02:33:10;18.77;;;8.90;;
313;SDS011;143;51.634;7.112;2024-01-30T02:35:36;19.40;;;9.13;;
313;SDS011;143;51.634;7.112;2024-01-30T02:38:02;16.13;;;8.50;;
313;SDS011;143;51.634;7.112;2024-01-30T02:40:27;13.20;;;8.73;;
313;SDS011;143;51.634;7.112;2024-01-30T02:42:53;21.53;;;9.30;;
313;SDS011;143;51.634;7.112;2024-01-30T02:45:18;21.57;;;9.50;;
313;SDS011;143;51.634;7.112;2024-01-30T02:47:44;16.97;;;8.53;;
313;SDS011;143;51.634;7.112;2024-01-30T02:50:10;14.83;;;9.30;;
313;SDS011;143;51.634;7.112;2024-01-30T02:52:36;23.50;;;9.37;;
313;SDS011;143;51.634;7.112;2024-01-30T02:55:01;17.60;;;9.30;;
313;SDS011;143;51.634;7.112;2024-01-30T02:57:27;17.10;;;9.20;;
313;SDS011;143;51.634;7.112;2024-01-30T02:59:53;14.60;;;8.40;;
313;SDS011;143;51.634;7.112;2024-01-30T03:02:19;22.80;;;10.60;;
313;SDS011;143;51.634;7.112;2024-01-30T03:04:45;20.23;;;9.50;;
313;SDS011;143;51.634;7.112;2024-01-30T03:07:10;19.53;;;8.87;;
313;SDS011;143;51.634;7.112;2024-01-30T03:09:36;13.93;;;8.63;;
313;SDS011;143;51.634;7.112;2024-01-30T03:12:02;14.60;;;9.73;;
313;SDS011;143;51.634;7.112;2024-01-30T03:14:30;20.33;;;9.80;;
313;SDS011;143;51.634;7.112;2024-01-30T03:16:56;15.80;;;9.33;;
313;SDS011;143;51.634;7.112;2024-01-30T03:19:22;15.37;;;9.80;;
313;SDS011;143;51.634;7.112;2024-01-30T03:21:47;17.67;;;8.43;;
313;SDS011;143;51.634;7.112;2024-01-30T03:24:13;21.97;;;10.40;;
313;SDS011;143;51.634;7.112;2024-01-30T03:26:38;21.73;;;9.00;;
313;SDS011;143;51.634;7.112;2024-01-30T03:29:04;18.90;;;10.20;;
313;SDS011;143;51.634;7.112;2024-01-30T03:31:29;16.57;;;9.30;;
313;SDS011;143;51.634;7.112;2024-01-30T03:33:55;15.70;;;9.07;;
313;SDS011;143;51.634;7.112;2024-01-30T03:36:20;14.57;;;9.27;;
313;SDS011;143;51.634;7.112;2024-01-30T03:38:46;21.70;;;8.93;;
313;SDS011;143;51.634;7.112;2024-01-30T03:41:11;16.97;;;8.60;;
313;SDS011;143;51.634;7.112;2024-01-30T03:43:37;14.77;;;9.03;;
313;SDS011;143;51.634;7.112;2024-01-30T03:46:03;13.17;;;8.70;;
313;SDS011;143;51.634;7.112;2024-01-30T03:48:29;14.90;;;9.30;;
313;SDS011;143;51.634;7.112;2024-01-30T03:50:55;13.07;;;9.40;;
313;SDS011;143;51.634;7.112;2024-01-30T03:53:20;14.77;;;9.20;;
313;SDS011;143;51.634;7.112;2024-01-30T03:55:46;17.83;;;9.80;;
313;SDS011;143;51.634;7.112;2024-01-30T03:58:11;17.77;;;8.67;;
313;SDS011;143;51.634;7.112;2024-01-30T04:00:37;19.87;;;8.33;;
313;SDS011;143;51.634;7.112;2024-01-30T04:03:03;18.30;;;8.63;;
313;SDS011;143;51.634;7.112;2024-01-30T04:05:28;15.03;;;8.80;;
313;SDS011;143;51.634;7.112;2024-01-30T04:07:54;19.20;;;8.87;;
313;SDS011;143;51.634;7.112;2024-01-30T04:10:20;12.87;;;9.07;;
313;SDS011;143;51.634;7.112;2024-01-30T04:12:45;15.53;;;9.03;;
313;SDS011;143;51.634;7.112;2024-01-30T04:15:11;19.30;;;9.40;;
313;SDS011;143;51.634;7.112;2024-01-30T04:17:38;16.93;;;9.07;;
313;SDS011;143;51.634;7.112;2024-01-30T04:20:04;16.60;;;8.43;;
313;SDS011;143;51.634;7.112;2024-01-30T04:22:30;17.70;;;8.80;;
313;SDS011;143;51.634;7.112;2024-01-30T04:24:56;12.37;;;8.07;;
313;SDS011;143;51.634;7.112;2024-01-30T04:27:21;17.70;;;8.87;;
313;SDS011;143;51.634;7.112;2024-01-30T04:29:47;13.10;;;8.87;;
313;SDS011;143;51.634;7.112;2024-01-30T04:32:13;15.87;;;9.03;;
313;SDS011;143;51.634;7.112;2024-01-30T04:34:38;12.63;;;8.30;;
313;SDS011;143;51.634;7.112;2024-01-30T04:37:04;12.20;;;8.20;;
313;SDS011;143;51.634;7.112;2024-01-30T04:39:29;14.80;;;9.77;;
313;SDS011;143;51.634;7.112;2024-01-30T04:41:55;18.03;;;8.90;;
313;SDS011;143;51.634;7.112;2024-01-30T04:44:20;13.63;;;8.00;;
313;SDS011;143;51.634;7.112;2024-01-30T04:46:46;13.43;;;8.93;;
313;SDS011;143;51.634;7.112;2024-01-30T04:49:12;13.07;;;8.33;;
313;SDS011;143;51.634;7.112;2024-01-30T04:51:37;14.57;;;8.13;;
313;SDS011;143;51.634;7.112;2024-01-30T04:54:03;12.73;;;7.87;;
313;SDS011;143;51.634;7.112;2024-01-30T04:56:29;19.63;;;9.03;;
313;SDS011;143;51.634;7.112;2024-01-30T04:58:56;17.70;;;8.97;;
313;SDS011;143;51.634;7.112;2024-01-30T05:01:22;15.80;;;8.73;;
313;SDS011;143;51.634;7.112;2024-01-30T05:03:47;25.03;;;9.10;;
313;SDS011;143;51.634;7.112;2024-01-30T05:06:13;14.90;;;8.90;;
313;SDS011;143;51.634;7.112;2024-01-30T05:08:49;18.10;;;8.73;;
313;SDS011;143;51.634;7.112;2024-01-30T05:11:14;14.07;;;8.60;;
313;SDS011;143;51.634;7.112;2024-01-30T05:13:40;13.27;;;8.53;;
313;SDS011;143;51.634;7.112;2024-01-30T05:16:05;19.83;;;8.43;;
313;SDS011;143;51.634;7.112;2024-01-30T05:18:31;17.37;;;8.40;;
313;SDS011;143;51.634;7.112;2024-01-30T05:20:57;13.60;;;8.20;;
313;SDS011;143;51.634;7.112;2024-01-30T05:23:22;14.53;;;8.23;;
313;SDS011;143;51.634;7.112;2024-01-30T05:25:48;15.50;;;8.70;;
313;SDS011;143;51.634;7.112;2024-01-30T05:28:13;14.27;;;8.60;;
313;SDS011;143;51.634;7.112;2024-01-30T05:30:39;15.53;;;7.33;;
313;SDS011;143;51.634;7.112;2024-01-30T05:33:04;17.00;;;8.20;;
313;SDS011;143;51.634;7.112;2024-01-30T05:35:30;12.43;;;7.03;;
313;SDS011;143;51.634;7.112;2024-01-30T05:37:56;14.97;;;8.40;;
313;SDS011;143;51.634;7.112;2024-01-30T05:40:21;15.03;;;8.40;;
313;SDS011;143;51.634;7.112;2024-01-30T05:42:47;18.63;;;9.40;;
313;SDS011;143;51.634;7.112;2024-01-30T05:45:13;11.90;;;7.63;;
313;SDS011;143;51.634;7.112;2024-01-30T05:47:38;17.10;;;7.23;;
313;SDS011;143;51.634;7.112;2024-01-30T05:50:04;15.53;;;8.53;;
313;SDS011;143;51.634;7.112;2024-01-30T05:52:30;11.40;;;7.73;;
313;SDS011;143;51.634;7.112;2024-01-30T05:54:56;13.67;;;7.87;;
313;SDS011;143;51.634;7.112;2024-01-30T05:57:21;17.63;;;7.47;;
313;SDS011;143;51.634;7.112;2024-01-30T05:59:47;17.73;;;8.83;;
313;SDS011;143;51.634;7.112;2024-01-30T06:02:13;14.37;;;8.00;;
313;SDS011;143;51.634;7.112;2024-01-30T06:04:39;15.73;;;7.50;;
313;SDS011;143;51.634;7.112;2024-01-30T06:07:04;15.70;;;7.63;;
313;SDS011;143;51.634;7.112;2024-01-30T06:09:31;13.83;;;8.83;;
313;SDS011;143;51.634;7.112;2024-01-30T06:11:57;15.50;;;7.67;;
313;SDS011;143;51.634;7.112;2024-01-30T06:14:23;13.30;;;7.50;;
313;SDS011;143;51.634;7.112;2024-01-30T06:16:48;15.10;;;7.50;;
313;SDS011;143;51.634;7.112;2024-01-30T06:19:14;11.00;;;6.57;;
313;SDS011;143;51.634;7.112;2024-01-30T06:21:40;12.93;;;8.03;;
313;SDS011;143;51.634;7.112;2024-01-30T06:24:05;11.20;;;6.50;;
313;SDS011;143;51.634;7.112;2024-01-30T06:26:31;14.60;;;7.40;;
313;SDS011;143;51.634;7.112;2024-01-30T06:28:56;10.73;;;6.53;;
313;SDS011;143;51.634;7.112;2024-01-30T06:31:22;13.00;;;7.13;;
313;SDS011;143;51.634;7.112;2024-01-30T06:33:47;16.50;;;7.87;;
313;SDS011;143;51.634;7.112;2024-01-30T06:36:13;16.17;;;7.07;;
313;SDS011;143;51.634;7.112;2024-01-30T06:38:40;17.80;;;7.80;;
313;SDS011;143;51.634;7.112;2024-01-30T06:41:06;12.53;;;7.17;;
313;SDS011;143;51.634;7.112;2024-01-30T06:43:32;14.50;;;7.20;;
313;SDS011;143;51.634;7.112;2024-01-30T06:45:57;11.77;;;7.37;;
313;SDS011;143;51.634;7.112;2024-01-30T06:48:24;14.50;;;6.77;;
313;SDS011;143;51.634;7.112;2024-01-30T06:50:50;14.83;;;7.57;;
313;SDS011;143;51.634;7.112;2024-01-30T06:53:18;12.13;;;8.00;;
313;SDS011;143;51.634;7.112;2024-01-30T06:55:44;14.23;;;7.10;;
313;SDS011;143;51.634;7.112;2024-01-30T06:58:09;11.90;;;7.43;;
313;SDS011;143;51.634;7.112;2024-01-30T07:00:35;11.30;;;5.93;;
313;SDS011;143;51.634;7.112;2024-01-30T07:03:01;13.63;;;7.27;;
313;SDS011;143;51.634;7.112;2024-01-30T07:05:27;16.83;;;7.73;;
313;SDS011;143;51.634;7.112;2024-01-30T07:07:52;14.03;;;7.53;;
313;SDS011;143;51.634;7.112;2024-01-30T07:10:18;13.23;;;7.03;;
313;SDS011;143;51.634;7.112;2024-01-30T07:12:43;13.70;;;7.37;;
313;SDS011;143;51.634;7.112;2024-01-30T07:15:09;10.30;;;6.43;;
313;SDS011;143;51.634;7.112;2024-01-30T07:17:35;10.63;;;6.93;;
313;SDS011;143;51.634;7.112;2024-01-30T07:20:01;13.30;;;7.10;;
313;SDS011;143;51.634;7.112;2024-01-30T07:22:28;13.57;;;7.33;;
313;SDS011;143;51.634;7.112;2024-01-30T07:24:55;11.27;;;6.70;;
313;SDS011;143;51.634;7.112;2024-01-30T07:27:20;12.00;;;6.60;;
313;SDS011;143;51.634;7.112;2024-01-30T07:29:46;14.83;;;7.63;;
313;SDS011;143;51.634;7.112;2024-01-30T07:32:12;14.90;;;8.10;;
313;SDS011;143;51.634;7.112;2024-01-30T07:34:37;18.20;;;7.63;;
313;SDS011;143;51.634;7.112;2024-01-30T07:37:03;12.50;;;7.60;;
313;SDS011;143;51.634;7.112;2024-01-30T07:39:28;14.07;;;7.57;;
313;SDS011;143;51.634;7.112;2024-01-30T07:41:54;15.17;;;7.80;;
313;SDS011;143;51.634;7.112;2024-01-30T07:44:20;14.13;;;7.90;;
313;SDS011;143;51.634;7.112;2024-01-30T07:46:46;14.67;;;8.13;;
313;SDS011;143;51.634;7.112;2024-01-30T07:49:11;12.40;;;7.23;;
313;SDS011;143;51.634;7.112;2024-01-30T07:51:39;12.40;;;6.87;;
313;SDS011;143;51.634;7.112;2024-01-30T07:54:13;10.53;;;6.50;;
313;SDS011;143;51.634;7.112;2024-01-30T07:56:39;12.73;;;7.20;;
313;SDS011;143;51.634;7.112;2024-01-30T07:59:05;13.53;;;7.47;;
313;SDS011;143;51.634;7.112;2024-01-30T08:01:30;12.03;;;6.90;;
313;SDS011;143;51.634;7.112;2024-01-30T08:03:56;14.37;;;8.00;;
313;SDS011;143;51.634;7.112;2024-01-30T08:06:22;51.70;;;8.10;;
313;SDS011;143;51.634;7.112;2024-01-30T08:08:47;9.87;;;7.30;;
313;SDS011;143;51.634;7.112;2024-01-30T08:11:13;17.57;;;6.97;;
313;SDS011;143;51.634;7.112;2024-01-30T08:13:38;12.97;;;8.27;;
313;SDS011;143;51.634;7.112;2024-01-30T08:16:04;17.60;;;8.10;;
313;SDS011;143;51.634;7.112;2024-01-30T08:18:30;20.20;;;8.20;;
313;SDS011;143;51.634;7.112;2024-01-30T08:20:55;16.90;;;8.07;;
313;SDS011;143;51.634;7.112;2024-01-30T08:23:21;16.27;;;9.10;;
313;SDS011;143;51.634;7.112;2024-01-30T08:25:46;17.50;;;8.13;;
313;SDS011;143;51.634;7.112;2024-01-30T08:28:12;16.43;;;7.30;;
313;SDS011;143;51.634;7.112;2024-01-30T08:30:37;16.67;;;8.33;;
313;SDS011;143;51.634;7.112;2024-01-30T08:33:04;14.00;;;8.33;;
313;SDS011;143;51.634;7.112;2024-01-30T08:35:30;15.53;;;8.10;;
313;SDS011;143;51.634;7.112;2024-01-30T08:37:58;14.97;;;8.20;;
313;SDS011;143;51.634;7.112;2024-01-30T08:40:24;19.47;;;8.37;;
313;SDS011;143;51.634;7.112;2024-01-30T08:42:49;17.00;;;8.10;;
313;SDS011;143;51.634;7.112;2024-01-30T08:45:15;17.70;;;7.80;;
313;SDS011;143;51.634;7.112;2024-01-30T08:47:41;10.47;;;7.00;;
313;SDS011;143;51.634;7.112;2024-01-30T08:50:06;15.57;;;8.10;;
313;SDS011;143;51.634;7.112;2024-01-30T08:52:32;18.83;;;7.30;;
313;SDS011;143;51.634;7.112;2024-01-30T08:54:59;15.43;;;8.37;;
313;SDS011;143;51.634;7.112;2024-01-30T08:57:24;18.33;;;8.13;;
313;SDS011;143;51.634;7.112;2024-01-30T08:59:53;12.53;;;7.50;;
313;SDS011;143;51.634;7.112;2024-01-30T09:02:19;21.00;;;7.23;;
313;SDS011;143;51.634;7.112;2024-01-30T09:04:44;12.53;;;7.33;;
313;SDS011;143;51.634;7.112;2024-01-30T09:07:10;12.30;;;6.60;;
313;SDS011;143;51.634;7.112;2024-01-30T09:09:37;14.27;;;7.40;;
313;SDS011;143;51.634;7.112;2024-01-30T09:12:04;13.43;;;7.40;;
313;SDS011;143;51.634;7.112;2024-01-30T09:14:33;9.50;;;6.00;;
313;SDS011;143;51.634;7.112;2024-01-30T09:16:58;10.90;;;6.07;;
313;SDS011;143;51.634;7.112;2024-01-30T09:19:24;13.13;;;6.33;;
313;SDS011;143;51.634;7.112;2024-01-30T09:21:49;9.93;;;7.03;;
313;SDS011;143;51.634;7.112;2024-01-30T09:24:15;12.37;;;6.73;;
313;SDS011;143;51.634;7.112;2024-01-30T09:26:40;15.23;;;6.90;;
313;SDS011;143;51.634;7.112;2024-01-30T09:29:06;14.40;;;6.77;;
313;SDS011;143;51.634;7.112;2024-01-30T09:31:32;12.37;;;6.07;;
313;SDS011;143;51.634;7.112;2024-01-30T09:33:58;13.80;;;7.03;;
313;SDS011;143;51.634;7.112;2024-01-30T09:36:23;10.63;;;6.10;;
313;SDS011;143;51.634;7.112;2024-01-30T09:38:49;14.00;;;6.40;;
313;SDS011;143;51.634;7.112;2024-01-30T09:41:14;13.10;;;6.63;;
313;SDS011;143;51.634;7.112;2024-01-30T09:43:40;11.27;;;7.50;;
313;SDS011;143;51.634;7.112;2024-01-30T09:46:13;13.33;;;6.03;;
313;SDS011;143;51.634;7.112;2024-01-30T09:48:41;13.43;;;6.10;;
313;SDS011;143;51.634;7.112;2024-01-30T09:51:08;11.00;;;6.57;;
313;SDS011;143;51.634;7.112;2024-01-30T09:53:34;10.87;;;6.10;;
313;SDS011;143;51.634;7.112;2024-01-30T09:56:01;12.60;;;6.50;;
313;SDS011;143;51.634;7.112;2024-01-30T09:58:28;14.43;;;6.87;;
313;SDS011;143;51.634;7.112;2024-01-30T10:00:53;12.20;;;6.03;;
313;SDS011;143;51.634;7.112;2024-01-30T10:03:19;19.03;;;6.50;;
313;SDS011;143;51.634;7.112;2024-01-30T10:05:48;13.40;;;6.57;;
313;SDS011;143;51.634;7.112;2024-01-30T10:08:19;14.03;;;6.47;;
313;SDS011;143;51.634;7.112;2024-01-30T10:10:46;9.83;;;5.97;;
313;SDS011;143;51.634;7.112;2024-01-30T10:13:12;13.00;;;6.90;;
313;SDS011;143;51.634;7.112;2024-01-30T10:15:37;11.73;;;6.13;;
313;SDS011;143;51.634;7.112;2024-01-30T10:18:04;8.13;;;5.30;;
313;SDS011;143;51.634;7.112;2024-01-30T10:20:31;17.73;;;6.50;;
313;SDS011;143;51.634;7.112;2024-01-30T10:22:57;11.73;;;5.90;;
313;SDS011;143;51.634;7.112;2024-01-30T10:25:23;14.23;;;6.77;;
313;SDS011;143;51.634;7.112;2024-01-30T10:27:53;13.40;;;5.80;;
313;SDS011;143;51.634;7.112;2024-01-30T10:30:22;16.23;;;5.67;;
313;SDS011;143;51.634;7.112;2024-01-30T10:32:48;11.60;;;5.80;;
313;SDS011;143;51.634;7.112;2024-01-30T10:35:14;8.67;;;5.40;;
313;SDS011;143;51.634;7.112;2024-01-30T10:37:42;10.20;;;5.87;;
313;SDS011;143;51.634;7.112;2024-01-30T10:40:09;11.10;;;5.63;;
313;SDS011;143;51.634;7.112;2024-01-30T10:42:38;10.77;;;5.70;;
313;SDS011;143;51.634;7.112;2024-01-30T10:45:09;10.93;;;6.30;;
313;SDS011;143;51.634;7.112;2024-01-30T10:47:42;13.37;;;6.20;;
313;SDS011;143;51.634;7.112;2024-01-30T10:50:09;15.03;;;6.50;;
313;SDS011;143;51.634;7.112;2024-01-30T10:52:36;15.97;;;6.53;;
313;SDS011;143;51.634;7.112;2024-01-30T10:55:01;10.87;;;5.10;;
313;SDS011;143;51.634;7.112;2024-01-30T10:57:31;10.13;;;5.67;;
313;SDS011;143;51.634;7.112;2024-01-30T11:00:00;14.47;;;6.60;;
313;SDS011;143;51.634;7.112;2024-01-30T11:02:35;15.70;;;6.30;;
313;SDS011;143;51.634;7.112;2024-01-30T11:05:05;12.30;;;5.23;;
313;SDS011;143;51.634;7.112;2024-01-30T11:07:30;11.90;;;6.20;;
313;SDS011;143;51.634;7.112;2024-01-30T11:12:29;13.43;;;6.17;;
313;SDS011;143;51.634;7.112;2024-01-30T11:15:05;15.00;;;7.43;;
313;SDS011;143;51.634;7.112;2024-01-30T11:22:46;22.47;;;7.50;;
313;SDS011;143;51.634;7.112;2024-01-30T11:25:16;13.87;;;6.87;;
313;SDS011;143;51.634;7.112;2024-01-30T11:27:43;17.90;;;8.27;;
313;SDS011;143;51.634;7.112;2024-01-30T11:30:09;21.30;;;7.60;;
313;SDS011;143;51.634;7.112;2024-01-30T11:32:36;15.60;;;7.30;;
313;SDS011;143;51.634;7.112;2024-01-30T11:35:05;15.03;;;7.60;;
313;SDS011;143;51.634;7.112;2024-01-30T11:37:31;13.10;;;7.40;;
313;SDS011;143;51.634;7.112;2024-01-30T11:39:57;18.87;;;7.30;;
313;SDS011;143;51.634;7.112;2024-01-30T11:42:23;13.53;;;6.83;;
313;SDS011;143;51.634;7.112;2024-01-30T11:44:52;15.00;;;7.53;;
313;SDS011;143;51.634;7.112;2024-01-30T11:47:18;14.87;;;7.87;;
313;SDS011;143;51.634;7.112;2024-01-30T11:49:43;14.67;;;8.07;;
313;SDS011;143;51.634;7.112;2024-01-30T11:52:09;13.83;;;7.60;;
313;SDS011;143;51.634;7.112;2024-01-30T11:54:35;12.93;;;6.93;;
313;SDS011;143;51.634;7.112;2024-01-30T11:57:01;13.13;;;7.63;;
313;SDS011;143;51.634;7.112;2024-01-30T11:59:26;14.90;;;7.27;;
313;SDS011;143;51.634;7.112;2024-01-30T12:01:52;17.87;;;8.23;;
313;SDS011;143;51.634;7.112;2024-01-30T12:04:17;22.40;;;7.77;;
313;SDS011;143;51.634;7.112;2024-01-30T12:06:43;20.00;;;8.20;;
313;SDS011;143;51.634;7.112;2024-01-30T12:09:09;13.73;;;8.60;;
313;SDS011;143;51.634;7.112;2024-01-30T12:11:45;16.57;;;7.40;;
313;SDS011;143;51.634;7.112;2024-01-30T12:14:15;22.70;;;8.03;;
313;SDS011;143;51.634;7.112;2024-01-30T12:16:42;21.73;;;7.70;;
313;SDS011;143;51.634;7.112;2024-01-30T12:19:07;17.57;;;7.57;;
313;SDS011;143;51.634;7.112;2024-01-30T12:21:33;13.60;;;7.37;;
313;SDS011;143;51.634;7.112;2024-01-30T12:23:59;15.40;;;7.63;;
313;SDS011;143;51.634;7.112;2024-01-30T12:26:26;13.83;;;7.50;;
313;SDS011;143;51.634;7.112;2024-01-30T12:28:54;13.63;;;7.40;;
313;SDS011;143;51.634;7.112;2024-01-30T12:31:31;16.67;;;7.97;;
313;SDS011;143;51.634;7.112;2024-01-30T12:33:59;18.50;;;7.70;;
313;SDS011;143;51.634;7.112;2024-01-30T12:36:25;19.27;;;8.27;;
313;SDS011;143;51.634;7.112;2024-01-30T12:38:50;17.83;;;8.33;;
313;SDS011;143;51.634;7.112;2024-01-30T12:41:16;15.77;;;7.70;;
313;SDS011;143;51.634;7.112;2024-01-30T12:43:42;12.77;;;6.97;;
313;SDS011;143;51.634;7.112;2024-01-30T12:46:08;14.90;;;7.40;;
313;SDS011;143;51.634;7.112;2024-01-30T12:48:33;18.03;;;8.00;;
313;SDS011;143;51.634;7.112;2024-01-30T12:50:59;14.30;;;7.30;;
313;SDS011;143;51.634;7.112;2024-01-30T12:53:25;14.33;;;7.23;;
313;SDS011;143;51.634;7.112;2024-01-30T12:55:50;15.97;;;8.13;;
313;SDS011;143;51.634;7.112;2024-01-30T12:58:16;14.50;;;8.10;;
313;SDS011;143;51.634;7.112;2024-01-30T13:00:41;22.50;;;7.73;;
313;SDS011;143;51.634;7.112;2024-01-30T13:03:08;13.80;;;7.10;;
313;SDS011;143;51.634;7.112;2024-01-30T13:05:35;22.43;;;8.20;;
313;SDS011;143;51.634;7.112;2024-01-30T13:08:00;20.00;;;8.80;;
313;SDS011;143;51.634;7.112;2024-01-30T13:10:26;19.30;;;7.93;;
313;SDS011;143;51.634;7.112;2024-01-30T13:12:52;15.73;;;7.70;;
313;SDS011;143;51.634;7.112;2024-01-30T13:15:18;14.87;;;7.83;;
313;SDS011;143;51.634;7.112;2024-01-30T13:17:43;21.83;;;9.20;;
313;SDS011;143;51.634;7.112;2024-01-30T13:20:10;18.53;;;8.53;;
313;SDS011;143;51.634;7.112;2024-01-30T13:22:36;18.33;;;8.70;;
313;SDS011;143;51.634;7.112;2024-01-30T13:25:03;24.60;;;8.13;;
313;SDS011;143;51.634;7.112;2024-01-30T13:27:29;20.93;;;8.07;;
313;SDS011;143;51.634;7.112;2024-01-30T13:29:55;18.93;;;8.63;;
313;SDS011;143;51.634;7.112;2024-01-30T13:32:20;17.20;;;8.00;;
313;SDS011;143;51.634;7.112;2024-01-30T13:34:46;18.80;;;8.50;;
313;SDS011;143;51.634;7.112;2024-01-30T13:37:11;16.83;;;7.57;;
313;SDS011;143;51.634;7.112;2024-01-30T13:39:37;20.27;;;8.00;;
313;SDS011;143;51.634;7.112;2024-01-30T13:42:04;19.63;;;7.67;;
313;SDS011;143;51.634;7.112;2024-01-30T13:44:29;17.10;;;8.60;;
313;SDS011;143;51.634;7.112;2024-01-30T13:46:55;14.47;;;8.10;;
313;SDS011;143;51.634;7.112;2024-01-30T13:49:21;19.13;;;7.97;;
313;SDS011;143;51.634;7.112;2024-01-30T13:51:46;20.30;;;8.00;;
313;SDS011;143;51.634;7.112;2024-01-30T13:54:12;18.43;;;8.57;;
313;SDS011;143;51.634;7.112;2024-01-30T13:56:37;20.10;;;8.93;;
313;SDS011;143;51.634;7.112;2024-01-30T13:59:03;23.53;;;9.70;;
313;SDS011;143;51.634;7.112;2024-01-30T14:01:30;16.17;;;8.50;;
313;SDS011;143;51.634;7.112;2024-01-30T14:03:56;16.67;;;7.73;;
313;SDS011;143;51.634;7.112;2024-01-30T14:06:22;16.60;;;7.90;;
313;SDS011;143;51.634;7.112;2024-01-30T14:08:47;18.37;;;7.67;;
313;SDS011;143;51.634;7.112;2024-01-30T14:11:13;13.10;;;7.90;;
313;SDS011;143;51.634;7.112;2024-01-30T14:13:39;16.00;;;8.87;;
313;SDS011;143;51.634;7.112;2024-01-30T14:16:04;20.17;;;8.93;;
313;SDS011;143;51.634;7.112;2024-01-30T14:18:30;15.07;;;8.13;;
313;SDS011;143;51.634;7.112;2024-01-30T14:20:55;19.23;;;8.73;;
313;SDS011;143;51.634;7.112;2024-01-30T14:23:21;17.47;;;8.23;;
313;SDS011;143;51.634;7.112;2024-01-30T14:25:47;17.37;;;9.03;;
313;SDS011;143;51.634;7.112;2024-01-30T14:28:12;20.23;;;8.13;;
313;SDS011;143;51.634;7.112;2024-01-30T14:30:38;15.27;;;8.20;;
313;SDS011;143;51.634;7.112;2024-01-30T14:33:03;19.07;;;7.80;;
313;SDS011;143;51.634;7.112;2024-01-30T14:35:29;17.57;;;8.23;;
313;SDS011;143;51.634;7.112;2024-01-30T14:37:55;18.50;;;7.63;;
313;SDS011;143;51.634;7.112;2024-01-30T14:40:20;16.53;;;8.47;;
313;SDS011;143;51.634;7.112;2024-01-30T14:42:46;15.70;;;9.20;;
313;SDS011;143;51.634;7.112;2024-01-30T14:45:12;14.03;;;8.73;;
313;SDS011;143;51.634;7.112;2024-01-30T14:47:37;23.17;;;8.40;;
313;SDS011;143;51.634;7.112;2024-01-30T14:50:03;12.93;;;7.40;;
313;SDS011;143;51.634;7.112;2024-01-30T14:52:30;14.80;;;8.13;;
313;SDS011;143;51.634;7.112;2024-01-30T14:54:56;13.10;;;7.80;;
313;SDS011;143;51.634;7.112;2024-01-30T14:57:22;16.43;;;8.00;;
313;SDS011;143;51.634;7.112;2024-01-30T14:59:48;15.90;;;8.37;;
313;SDS011;143;51.634;7.112;2024-01-30T15:02:14;16.87;;;7.83;;
313;SDS011;143;51.634;7.112;2024-01-30T15:04:39;13.90;;;6.30;;
313;SDS011;143;51.634;7.112;2024-01-30T15:07:05;13.33;;;5.73;;
313;SDS011;143;51.634;7.112;2024-01-30T15:09:31;14.33;;;5.40;;
313;SDS011;143;51.634;7.112;2024-01-30T15:11:56;21.27;;;6.07;;
313;SDS011;143;51.634;7.112;2024-01-30T15:14:22;7.70;;;5.17;;
313;SDS011;143;51.634;7.112;2024-01-30T15:16:49;8.97;;;4.90;;
313;SDS011;143;51.634;7.112;2024-01-30T15:19:14;13.67;;;4.43;;
313;SDS011;143;51.634;7.112;2024-01-30T15:21:40;13.50;;;4.67;;
313;SDS011;143;51.634;7.112;2024-01-30T15:24:06;9.40;;;4.03;;
313;SDS011;143;51.634;7.112;2024-01-30T15:26:31;8.43;;;4.23;;
313;SDS011;143;51.634;7.112;2024-01-30T15:28:57;7.00;;;4.03;;
313;SDS011;143;51.634;7.112;2024-01-30T15:31:22;11.20;;;3.30;;